Odisea Mas — CA4029 — position and weather

sailwx.info

Track history (hours):
 
Tides and Currents Weather Stations Pressure Air Temp Water Temp Dewpoint Dewpoint Depression Visibility Wind Speed Wind Dir Waves Ship Positions

Odisea Mas

Last reported at 2018-Feb-19 03:35 UTC. Time now 2018-Feb-19 04:13 UTC.
Position S 32°56' W 071°32'.

Type: Pleasure craft. MMSI: 725000974.

Date/timePositionNaut miles runAvg speedWind from/ knotsBaromVisibWave heightAir tempDewpointWater temp
2018-Feb-19 03:35S 32°56' W 071°32'0 0.0
2018-Feb-19 03:29S 32°56' W 071°32'0 0.0
2018-Feb-19 02:59S 32°56' W 071°32'0 0.0
2018-Feb-19 02:23S 32°56' W 071°32'0 0.0
2018-Feb-19 01:53S 32°56' W 071°32'0 0.0
2018-Feb-19 01:29S 32°56' W 071°32'0 0.0
2018-Feb-19 00:56S 32°56' W 071°32'0 0.0
2018-Feb-19 00:29S 32°56' W 071°32'0 0.0
2018-Feb-18 19:53S 32°56' W 071°32'0 0.0
2018-Feb-18 19:29S 32°56' W 071°32'0 0.0
2018-Feb-18 18:59S 32°56' W 071°32'0 0.0
2018-Feb-18 18:29S 32°56' W 071°32'0 0.0
2018-Feb-18 18:00S 32°56' W 071°32'3 5.1
2018-Feb-18 17:30S 32°53' W 071°33'3 0.1
2018-Feb-17 16:27S 32°50' W 071°33'4 7.3
2018-Feb-17 15:57S 32°54' W 071°33'2 2.9
2018-Feb-17 15:23S 32°56' W 071°32'0 0.1
2018-Feb-17 14:22S 32°56' W 071°32'0 0.0
2018-Feb-17 13:52S 32°56' W 071°32'0 0.0
2018-Feb-17 13:19S 32°56' W 071°32'0 0.0
2018-Feb-17 11:01S 32°56' W 071°32'0 0.0
2018-Feb-17 10:46S 32°56' W 071°32'0 0.0
2018-Feb-17 10:19S 32°56' W 071°32'0 0.0
2018-Feb-17 09:52S 32°56' W 071°32'0 0.0
2018-Feb-17 09:19S 32°56' W 071°32'0 0.0
2018-Feb-17 08:58S 32°56' W 071°32'0 0.0
2018-Feb-17 08:22S 32°56' W 071°32'0 0.0
2018-Feb-17 07:55S 32°56' W 071°32'0 0.0
2018-Feb-17 07:28S 32°56' W 071°32'0 0.0
2018-Feb-17 06:58S 32°56' W 071°32'0 0.0
2018-Feb-17 06:28S 32°56' W 071°32'0 0.0
2018-Feb-17 05:40S 32°56' W 071°32'0 0.0
2018-Feb-17 05:22S 32°56' W 071°32'0 0.0
2018-Feb-17 04:52S 32°56' W 071°32'0 0.0
2018-Feb-17 04:28S 32°56' W 071°32'0 0.0
2018-Feb-17 03:49S 32°56' W 071°32'0 0.0
2018-Feb-17 03:10S 32°56' W 071°32'0 0.0
2018-Feb-17 02:59S 32°56' W 071°32'0 0.0
2018-Feb-17 02:28S 32°56' W 071°32'0 0.0
2018-Feb-17 01:58S 32°56' W 071°32'0 0.0
2018-Feb-17 01:28S 32°56' W 071°32'0 0.0
2018-Feb-17 00:43S 32°56' W 071°32'0 0.0
2018-Feb-17 00:16S 32°56' W 071°32'0 0.0
2018-Feb-16 23:55S 32°56' W 071°32'0 0.1
2018-Feb-16 21:14S 32°55' W 071°32'1 5.4
2018-Feb-16 21:00S 32°54' W 071°32'0 0.2
2018-Feb-16 20:29S 32°54' W 071°32'2 3.0
2018-Feb-16 19:57S 32°56' W 071°32'0 0.0
2018-Feb-16 19:30S 32°56' W 071°32'0 0.0
2018-Feb-16 18:24S 32°56' W 071°32'0 0.0
2018-Feb-16 17:57S 32°56' W 071°32'0 0.0
2018-Feb-16 17:19S 32°56' W 071°32'0 0.0
2018-Feb-16 16:51S 32°56' W 071°32'0 0.0
2018-Feb-16 15:31S 32°56' W 071°32'0 0.0
2018-Feb-16 13:21S 32°56' W 071°32'0 0.0
2018-Feb-16 12:51S 32°56' W 071°32'0 0.0
2018-Feb-16 12:21S 32°56' W 071°32'0 0.0
2018-Feb-16 12:00S 32°56' W 071°32'0 0.0
2018-Feb-16 11:27S 32°56' W 071°32'0 0.0
2018-Feb-16 10:06S 32°56' W 071°32'0 0.0
2018-Feb-16 09:42S 32°56' W 071°32'0 0.0
2018-Feb-16 09:21S 32°56' W 071°32'0 0.0
2018-Feb-16 09:00S 32°56' W 071°32'0 0.0
2018-Feb-16 08:24S 32°56' W 071°32'0 0.0
2018-Feb-16 07:51S 32°56' W 071°32'0 0.0
2018-Feb-16 07:21S 32°56' W 071°32'0 0.0
2018-Feb-16 06:57S 32°56' W 071°32'0 0.0
2018-Feb-16 06:18S 32°56' W 071°32'0 0.0
2018-Feb-16 06:00S 32°56' W 071°32'0 0.0
2018-Feb-16 05:30S 32°56' W 071°32'0 0.0
2018-Feb-16 04:54S 32°56' W 071°32'0 0.0
2018-Feb-16 04:30S 32°56' W 071°32'0 0.0
2018-Feb-16 03:57S 32°56' W 071°32'0 0.0
2018-Feb-16 03:27S 32°56' W 071°32'0 0.0
2018-Feb-16 02:57S 32°56' W 071°32'0 0.0
2018-Feb-16 01:48S 32°56' W 071°32'0 0.0
2018-Feb-16 01:24S 32°56' W 071°32'0 0.0
2018-Feb-16 00:57S 32°56' W 071°32'0 0.0
2018-Feb-16 00:21S 32°56' W 071°32'0 0.0
2018-Feb-15 23:48S 32°56' W 071°32'0 0.0
2018-Feb-15 23:15S 32°56' W 071°32'0 0.0
2018-Feb-15 21:30S 32°56' W 071°32'0 0.0
2018-Feb-15 21:00S 32°56' W 071°32'0 0.0
2018-Feb-15 19:36S 32°56' W 071°32'0 0.0
2018-Feb-15 14:42S 32°56' W 071°32'0 0.0
2018-Feb-15 13:57S 32°56' W 071°32'0 0.0
2018-Feb-15 13:24S 32°56' W 071°32'0 0.0
2018-Feb-15 13:00S 32°56' W 071°32'0 0.0
2018-Feb-15 12:06S 32°56' W 071°32'0 0.0
2018-Feb-15 11:57S 32°56' W 071°32'0 0.0
2018-Feb-15 11:30S 32°56' W 071°32'0 0.0
2018-Feb-15 10:12S 32°56' W 071°32'0 0.0
2018-Feb-15 09:57S 32°56' W 071°32'0 0.0
2018-Feb-15 09:30S 32°56' W 071°32'0 0.0
2018-Feb-15 08:57S 32°56' W 071°32'0 0.0
2018-Feb-15 08:30S 32°56' W 071°32'0 0.0
2018-Feb-15 07:57S 32°56' W 071°32'0 0.0
2018-Feb-15 07:30S 32°56' W 071°32'0 0.0
2018-Feb-15 07:00S 32°56' W 071°32'0 0.0
2018-Feb-15 06:24S 32°56' W 071°32'0 0.0
2018-Feb-15 06:00S 32°56' W 071°32'0 0.0
2018-Feb-15 05:30S 32°56' W 071°32'0 0.0
2018-Feb-15 05:00S 32°56' W 071°32'0 0.0
2018-Feb-15 04:27S 32°56' W 071°32'0 0.0
2018-Feb-15 04:00S 32°56' W 071°32'0 0.0
2018-Feb-15 03:30S 32°56' W 071°32'0 0.0
2018-Feb-15 03:00S 32°56' W 071°32'0 0.0
2018-Feb-15 02:27S 32°56' W 071°32'0 0.0
2018-Feb-15 02:00S 32°56' W 071°32'0 0.0
2018-Feb-15 01:30S 32°56' W 071°32'0 0.0
2018-Feb-15 00:57S 32°56' W 071°32'0 0.0
2018-Feb-15 00:24S 32°56' W 071°32'0 0.0
2018-Feb-15 00:00S 32°56' W 071°32'0 0.0
2018-Feb-14 23:27S 32°56' W 071°32'0 0.0
2018-Feb-14 22:57S 32°56' W 071°32'0 0.0
2018-Feb-14 21:33S 32°56' W 071°32'0 0.0
2018-Feb-14 21:22S 32°56' W 071°32'0 0.0
2018-Feb-14 20:51S 32°56' W 071°32'0 0.0
2018-Feb-14 20:30S 32°56' W 071°32'0 0.3
2018-Feb-14 19:58S 32°56' W 071°32'4 7.8
2018-Feb-14 19:30S 32°52' W 071°34'4 1.7
2018-Feb-14 17:15S 32°52' W 071°38'1 5.7
2018-Feb-14 17:00S 32°53' W 071°37'2 4.3
2018-Feb-14 16:29S 32°55' W 071°36'2 3.6
2018-Feb-14 16:00S 32°56' W 071°34'1 2.3
2018-Feb-14 15:30S 32°55' W 071°34'2 3.3
2018-Feb-14 15:00S 32°55' W 071°32'0 0.6
2018-Feb-14 14:30S 32°56' W 071°32'0 0.0
2018-Feb-14 14:00S 32°56' W 071°32'0 0.0
2018-Feb-14 13:30S 32°56' W 071°32'0 0.0
2018-Feb-14 13:00S 32°56' W 071°32'0 0.0
2018-Feb-14 12:25S 32°56' W 071°32'0 0.0
2018-Feb-14 11:57S 32°56' W 071°32'0 0.0
2018-Feb-14 11:30S 32°56' W 071°32'0 0.0
2018-Feb-14 11:00S 32°56' W 071°32'0 0.0
2018-Feb-14 10:28S 32°56' W 071°32'0 0.0
2018-Feb-14 09:54S 32°56' W 071°32'0 0.0
2018-Feb-14 09:30S 32°56' W 071°32'0 0.0
2018-Feb-14 09:00S 32°56' W 071°32'0 0.0
2018-Feb-14 08:30S 32°56' W 071°32'0 0.0
2018-Feb-14 07:57S 32°56' W 071°32'0 0.0
2018-Feb-14 07:27S 32°56' W 071°32'0 0.0
2018-Feb-14 07:00S 32°56' W 071°32'0 0.0
2018-Feb-14 06:30S 32°56' W 071°32'0 0.0
2018-Feb-14 06:00S 32°56' W 071°32'0 0.0
2018-Feb-14 05:30S 32°56' W 071°32'0 0.0
2018-Feb-14 05:00S 32°56' W 071°32'0 0.0
2018-Feb-14 04:30S 32°56' W 071°32'0 0.0
2018-Feb-14 04:00S 32°56' W 071°32'0 0.0
2018-Feb-14 03:30S 32°56' W 071°32'0 0.0
2018-Feb-14 02:57S 32°56' W 071°32'0 0.0
2018-Feb-14 02:30S 32°56' W 071°32'0 0.0
2018-Feb-14 02:00S 32°56' W 071°32'0 0.0
2018-Feb-14 01:30S 32°56' W 071°32'0 0.0
2018-Feb-14 01:00S 32°56' W 071°32'0 0.0
2018-Feb-14 00:30S 32°56' W 071°32'0 0.0
2018-Feb-14 00:00S 32°56' W 071°32'0 0.0
2018-Feb-13 23:30S 32°56' W 071°32'0 0.0
2018-Feb-13 22:54S 32°56' W 071°32'0 0.0
2018-Feb-13 22:27S 32°56' W 071°32'0 0.0
2018-Feb-13 21:57S 32°56' W 071°32'0 0.6
2018-Feb-13 21:30S 32°55' W 071°33'3 6.4
2018-Feb-13 21:00S 32°53' W 071°35'1 1.5
2018-Feb-13 20:30S 32°53' W 071°34'1 2.2
2018-Feb-13 20:00S 32°54' W 071°33'2 3.6
2018-Feb-13 19:30S 32°56' W 071°32'0 0.1
2018-Feb-13 18:58S 32°56' W 071°32'0 0.0
2018-Feb-13 18:22S 32°56' W 071°32'0 0.0
2018-Feb-13 17:58S 32°56' W 071°32'0 0.0
2018-Feb-13 17:28S 32°56' W 071°32'0 0.2
2018-Feb-13 16:59S 32°56' W 071°32'2 5.3
2018-Feb-13 16:30S 32°53' W 071°34'2 4.2
2018-Feb-13 15:58S 32°55' W 071°32'0 0.7
2018-Feb-13 15:30S 32°56' W 071°32'0 0.0
2018-Feb-13 15:00S 32°56' W 071°32'0 0.0
2018-Feb-13 14:30S 32°56' W 071°32'0 0.0
2018-Feb-13 14:00S 32°56' W 071°32'0 0.0
2018-Feb-13 13:30S 32°56' W 071°32'0 0.0
2018-Feb-13 13:00S 32°56' W 071°32'0 0.0
2018-Feb-13 12:24S 32°56' W 071°32'0 0.0
2018-Feb-13 12:00S 32°56' W 071°32'0 0.0
2018-Feb-13 11:27S 32°56' W 071°32'0 0.0
2018-Feb-13 11:00S 32°56' W 071°32'0 0.0
2018-Feb-13 10:24S 32°56' W 071°32'0 0.0
2018-Feb-13 10:00S 32°56' W 071°32'0 0.0
2018-Feb-13 09:30S 32°56' W 071°32'0 0.0
2018-Feb-13 09:00S 32°56' W 071°32'0 0.0
2018-Feb-13 08:30S 32°56' W 071°32'0 0.0
2018-Feb-13 08:00S 32°56' W 071°32'0 0.0
2018-Feb-13 07:30S 32°56' W 071°32'0 0.0
2018-Feb-13 07:00S 32°56' W 071°32'0 0.0
2018-Feb-13 06:27S 32°56' W 071°32'0 0.0
2018-Feb-13 06:00S 32°56' W 071°32'0 0.0
2018-Feb-13 05:30S 32°56' W 071°32'0 0.0
2018-Feb-13 05:00S 32°56' W 071°32'0 0.0
2018-Feb-13 04:24S 32°56' W 071°32'0 0.0
2018-Feb-13 04:00S 32°56' W 071°32'0 0.0
2018-Feb-13 03:30S 32°56' W 071°32'0 0.0
2018-Feb-13 03:00S 32°56' W 071°32'0 0.0
2018-Feb-13 02:30S 32°56' W 071°32'0 0.0
2018-Feb-13 02:00S 32°56' W 071°32'0 0.0
2018-Feb-13 01:30S 32°56' W 071°32'0 0.0
2018-Feb-13 01:00S 32°56' W 071°32'0 0.0
2018-Feb-13 00:30S 32°56' W 071°32'0 0.0
2018-Feb-13 00:00S 32°56' W 071°32'0 0.0
2018-Feb-12 23:30S 32°56' W 071°32'0 0.0
2018-Feb-12 23:00S 32°56' W 071°32'0 0.0
2018-Feb-12 22:30S 32°56' W 071°32'0 0.0
2018-Feb-12 21:51S 32°56' W 071°32'0 0.0
2018-Feb-12 21:30S 32°56' W 071°32'0 0.0
2018-Feb-12 21:00S 32°56' W 071°32'0 0.0
2018-Feb-12 20:27S 32°56' W 071°32'0 0.0
2018-Feb-12 19:51S 32°56' W 071°32'0 0.0
2018-Feb-12 19:27S 32°56' W 071°32'0 0.0
2018-Feb-12 19:00S 32°56' W 071°32'0 0.0
2018-Feb-12 18:27S 32°56' W 071°32'0 0.0
2018-Feb-12 17:57S 32°56' W 071°32'0 0.0
2018-Feb-12 17:24S 32°56' W 071°32'0 0.0
2018-Feb-12 16:57S 32°56' W 071°32'0 0.0
2018-Feb-12 16:30S 32°56' W 071°32'0 0.0
2018-Feb-12 16:00S 32°56' W 071°32'0 0.0
2018-Feb-12 15:09S 32°56' W 071°32'0 0.0
2018-Feb-12 15:00S 32°56' W 071°32'0 0.0
2018-Feb-12 14:27S 32°56' W 071°32'0 0.0
2018-Feb-12 13:54S 32°56' W 071°32'0 0.0
2018-Feb-12 13:18S 32°56' W 071°32'0 0.0
2018-Feb-12 13:00S 32°56' W 071°32'0 0.0
2018-Feb-12 12:30S 32°56' W 071°32'0 0.0
2018-Feb-12 11:57S 32°56' W 071°32'0 0.0
2018-Feb-12 11:30S 32°56' W 071°32'0 0.0
2018-Feb-12 11:00S 32°56' W 071°32'0 0.0
2018-Feb-12 10:30S 32°56' W 071°32'0 0.0
2018-Feb-12 09:57S 32°56' W 071°32'0 0.0
2018-Feb-12 09:30S 32°56' W 071°32'0 0.0
2018-Feb-12 08:57S 32°56' W 071°32'0 0.0
2018-Feb-12 07:51S 32°56' W 071°32'0 0.0
2018-Feb-12 07:30S 32°56' W 071°32'0 0.0
2018-Feb-12 07:00S 32°56' W 071°32'0 0.0
2018-Feb-12 06:30S 32°56' W 071°32'0 0.0
2018-Feb-12 06:00S 32°56' W 071°32'0 0.0
2018-Feb-12 05:30S 32°56' W 071°32'0 0.0
2018-Feb-12 04:57S 32°56' W 071°32'0 0.0
2018-Feb-12 04:30S 32°56' W 071°32'0 0.0
2018-Feb-12 04:00S 32°56' W 071°32'0 0.0
2018-Feb-12 03:30S 32°56' W 071°32'0 0.0
2018-Feb-12 03:00S 32°56' W 071°32'0 0.0
2018-Feb-12 02:30S 32°56' W 071°32'0 0.0
2018-Feb-12 02:00S 32°56' W 071°32'0 0.0
2018-Feb-12 01:30S 32°56' W 071°32'0 0.0
2018-Feb-12 01:00S 32°56' W 071°32'0 0.0
2018-Feb-12 00:30S 32°56' W 071°32'0 0.0
2018-Feb-12 00:00S 32°56' W 071°32'0 0.0
2018-Feb-11 23:30S 32°56' W 071°32'0 0.0
2018-Feb-11 23:00S 32°56' W 071°32'0 0.0
2018-Feb-11 22:30S 32°56' W 071°32'0 0.0
2018-Feb-11 22:00S 32°56' W 071°32'0 0.0
2018-Feb-11 21:30S 32°56' W 071°32'0 0.0
2018-Feb-11 21:00S 32°56' W 071°32'0 0.0
2018-Feb-11 20:30S 32°56' W 071°32'0 0.0
2018-Feb-11 20:00S 32°56' W 071°32'0 0.0
2018-Feb-11 19:30S 32°56' W 071°32'0 0.0
2018-Feb-11 19:00S 32°56' W 071°32'0 0.0
2018-Feb-11 18:30S 32°56' W 071°32'0 0.0
2018-Feb-11 18:00S 32°56' W 071°32'0 0.0
2018-Feb-11 17:30S 32°56' W 071°32'0 0.0
2018-Feb-11 17:00S 32°56' W 071°32'0 0.0
2018-Feb-11 16:30S 32°56' W 071°32'0 0.0
2018-Feb-11 16:00S 32°56' W 071°32'1 2.6
2018-Feb-11 15:30S 32°55' W 071°34'1 2.6
2018-Feb-11 14:59S 32°56' W 071°32'0 0.1
2018-Feb-11 14:29S 32°56' W 071°32'0 0.0
2018-Feb-11 13:59S 32°56' W 071°32'0 0.0
2018-Feb-11 13:29S 32°56' W 071°32'0 0.0
2018-Feb-11 12:59S 32°56' W 071°32'0 0.0
2018-Feb-11 12:29S 32°56' W 071°32'0 0.0
2018-Feb-11 11:59S 32°56' W 071°32'0 0.0
2018-Feb-11 11:29S 32°56' W 071°32'0 0.0
2018-Feb-11 10:59S 32°56' W 071°32'0 0.0
2018-Feb-11 10:29S 32°56' W 071°32'0 0.0
2018-Feb-11 09:59S 32°56' W 071°32'0 0.0
2018-Feb-11 09:29S 32°56' W 071°32'0 0.0
2018-Feb-11 08:59S 32°56' W 071°32'0 0.0
2018-Feb-11 08:29S 32°56' W 071°32'0 0.0
2018-Feb-11 07:59S 32°56' W 071°32'0 0.0
2018-Feb-11 07:29S 32°56' W 071°32'0 0.0
2018-Feb-11 06:59S 32°56' W 071°32'0 0.0
2018-Feb-11 06:29S 32°56' W 071°32'0 0.0
2018-Feb-11 05:59S 32°56' W 071°32'0 0.0
2018-Feb-11 05:29S 32°56' W 071°32'0 0.0
2018-Feb-11 04:59S 32°56' W 071°32'0 0.0
2018-Feb-11 04:29S 32°56' W 071°32'0 0.0
2018-Feb-11 03:59S 32°56' W 071°32'0 0.0
2018-Feb-11 03:29S 32°56' W 071°32'0 0.0
2018-Feb-11 02:59S 32°56' W 071°32'0 0.0
2018-Feb-11 02:26S 32°56' W 071°32'0 0.0
2018-Feb-11 01:59S 32°56' W 071°32'0 0.0
2018-Feb-11 01:29S 32°56' W 071°32'0 0.0
2018-Feb-11 00:59S 32°56' W 071°32'0 0.0
2018-Feb-11 00:29S 32°56' W 071°32'0 0.0
2018-Feb-10 23:59S 32°56' W 071°32'0 0.0
2018-Feb-10 23:29S 32°56' W 071°32'0 0.0
2018-Feb-10 22:56S 32°56' W 071°32'0 0.0
2018-Feb-10 22:29S 32°56' W 071°32'0 0.0
2018-Feb-10 21:59S 32°56' W 071°32'0 0.0
2018-Feb-10 21:29S 32°56' W 071°32'0 0.0
2018-Feb-10 20:59S 32°56' W 071°32'0 0.0
2018-Feb-10 20:29S 32°56' W 071°32'0 0.0
2018-Feb-10 19:59S 32°56' W 071°32'0 0.0
2018-Feb-10 19:29S 32°56' W 071°32'0 0.0
2018-Feb-10 18:56S 32°56' W 071°32'0 0.0
2018-Feb-10 18:29S 32°56' W 071°32'0 0.0
2018-Feb-10 17:59S 32°56' W 071°32'0 0.0
2018-Feb-10 17:29S 32°56' W 071°32'0 0.0
2018-Feb-10 16:59S 32°56' W 071°32'0 0.0
2018-Feb-10 16:29S 32°56' W 071°32'0 0.0
2018-Feb-10 15:59S 32°56' W 071°32'0 0.0
2018-Feb-10 15:29S 32°56' W 071°32'0 0.0
2018-Feb-10 14:59S 32°56' W 071°32'0 0.0
2018-Feb-10 14:29S 32°56' W 071°32'0 0.0
2018-Feb-10 13:59S 32°56' W 071°32'0 0.0
2018-Feb-10 13:29S 32°56' W 071°32'0 0.2
2018-Feb-10 12:58S 32°56' W 071°33'0 0.0
2018-Feb-10 12:28S 32°56' W 071°33'0 0.2
2018-Feb-10 11:58S 32°56' W 071°32'0 0.0
2018-Feb-10 11:28S 32°56' W 071°32'0 0.0
2018-Feb-10 10:58S 32°56' W 071°32'0 0.0
2018-Feb-10 10:28S 32°56' W 071°32'0 0.0
2018-Feb-10 09:58S 32°56' W 071°32'0 0.0
2018-Feb-10 09:28S 32°56' W 071°32'0 0.0
2018-Feb-10 08:58S 32°56' W 071°32'0 0.0
2018-Feb-10 08:28S 32°56' W 071°32'0 0.0
2018-Feb-10 07:58S 32°56' W 071°32'0 0.0
2018-Feb-10 07:28S 32°56' W 071°32'0 0.0
2018-Feb-10 06:58S 32°56' W 071°32'0 0.0
2018-Feb-10 06:28S 32°56' W 071°32'0 0.0
2018-Feb-10 05:58S 32°56' W 071°32'0 0.0
2018-Feb-10 05:28S 32°56' W 071°32'0 0.0
2018-Feb-10 04:58S 32°56' W 071°32'0 0.0
2018-Feb-10 04:28S 32°56' W 071°32'0 0.0
2018-Feb-10 03:58S 32°56' W 071°32'0 0.0
2018-Feb-10 03:28S 32°56' W 071°32'0 0.0
2018-Feb-10 02:58S 32°56' W 071°32'0 0.0
2018-Feb-10 02:28S 32°56' W 071°32'0 0.0
2018-Feb-10 01:55S 32°56' W 071°32'0 0.0
2018-Feb-10 01:28S 32°56' W 071°32'0 0.0
2018-Feb-10 00:58S 32°56' W 071°32'0 0.0
2018-Feb-10 00:25S 32°56' W 071°32'0 0.0
2018-Feb-09 23:55S 32°56' W 071°32'0 0.0
2018-Feb-09 23:28S 32°56' W 071°32'0 0.0
2018-Feb-09 22:58S 32°56' W 071°32'0 0.0
2018-Feb-09 22:43S 32°56' W 071°32'  
Track history (hours):
 
Tides and Currents Weather Stations Pressure Air Temp Water Temp Dewpoint Dewpoint Depression Visibility Wind Speed Wind Dir Waves Ship Positions

Odisea Mas

Last reported at 2018-Feb-19 03:35 UTC. Time now 2018-Feb-19 04:13 UTC.
Position S 32°56' W 071°32'.

Type: Pleasure craft. MMSI: 725000974.

Date/timePositionNaut miles runAvg speedWind from/ knotsBaromVisibWave heightAir tempDewpointWater temp
2018-Feb-19 03:35S 32°56' W 071°32'0 0.0
2018-Feb-19 03:29S 32°56' W 071°32'0 0.0
2018-Feb-19 02:59S 32°56' W 071°32'0 0.0
2018-Feb-19 02:23S 32°56' W 071°32'0 0.0
2018-Feb-19 01:53S 32°56' W 071°32'0 0.0
2018-Feb-19 01:29S 32°56' W 071°32'0 0.0
2018-Feb-19 00:56S 32°56' W 071°32'0 0.0
2018-Feb-19 00:29S 32°56' W 071°32'0 0.0
2018-Feb-18 19:53S 32°56' W 071°32'0 0.0
2018-Feb-18 19:29S 32°56' W 071°32'0 0.0
2018-Feb-18 18:59S 32°56' W 071°32'0 0.0
2018-Feb-18 18:29S 32°56' W 071°32'0 0.0
2018-Feb-18 18:00S 32°56' W 071°32'3 5.1
2018-Feb-18 17:30S 32°53' W 071°33'3 0.1
2018-Feb-17 16:27S 32°50' W 071°33'4 7.3
2018-Feb-17 15:57S 32°54' W 071°33'2 2.9
2018-Feb-17 15:23S 32°56' W 071°32'0 0.1
2018-Feb-17 14:22S 32°56' W 071°32'0 0.0
2018-Feb-17 13:52S 32°56' W 071°32'0 0.0
2018-Feb-17 13:19S 32°56' W 071°32'0 0.0
2018-Feb-17 11:01S 32°56' W 071°32'0 0.0
2018-Feb-17 10:46S 32°56' W 071°32'0 0.0
2018-Feb-17 10:19S 32°56' W 071°32'0 0.0
2018-Feb-17 09:52S 32°56' W 071°32'0 0.0
2018-Feb-17 09:19S 32°56' W 071°32'0 0.0
2018-Feb-17 08:58S 32°56' W 071°32'0 0.0
2018-Feb-17 08:22S 32°56' W 071°32'0 0.0
2018-Feb-17 07:55S 32°56' W 071°32'0 0.0
2018-Feb-17 07:28S 32°56' W 071°32'0 0.0
2018-Feb-17 06:58S 32°56' W 071°32'0 0.0
2018-Feb-17 06:28S 32°56' W 071°32'0 0.0
2018-Feb-17 05:40S 32°56' W 071°32'0 0.0
2018-Feb-17 05:22S 32°56' W 071°32'0 0.0
2018-Feb-17 04:52S 32°56' W 071°32'0 0.0
2018-Feb-17 04:28S 32°56' W 071°32'0 0.0
2018-Feb-17 03:49S 32°56' W 071°32'0 0.0
2018-Feb-17 03:10S 32°56' W 071°32'0 0.0
2018-Feb-17 02:59S 32°56' W 071°32'0 0.0
2018-Feb-17 02:28S 32°56' W 071°32'0 0.0
2018-Feb-17 01:58S 32°56' W 071°32'0 0.0
2018-Feb-17 01:28S 32°56' W 071°32'0 0.0
2018-Feb-17 00:43S 32°56' W 071°32'0 0.0
2018-Feb-17 00:16S 32°56' W 071°32'0 0.0
2018-Feb-16 23:55S 32°56' W 071°32'0 0.1
2018-Feb-16 21:14S 32°55' W 071°32'1 5.4
2018-Feb-16 21:00S 32°54' W 071°32'0 0.2
2018-Feb-16 20:29S 32°54' W 071°32'2 3.0
2018-Feb-16 19:57S 32°56' W 071°32'0 0.0
2018-Feb-16 19:30S 32°56' W 071°32'0 0.0
2018-Feb-16 18:24S 32°56' W 071°32'0 0.0
2018-Feb-16 17:57S 32°56' W 071°32'0 0.0
2018-Feb-16 17:19S 32°56' W 071°32'0 0.0
2018-Feb-16 16:51S 32°56' W 071°32'0 0.0
2018-Feb-16 15:31S 32°56' W 071°32'0 0.0
2018-Feb-16 13:21S 32°56' W 071°32'0 0.0
2018-Feb-16 12:51S 32°56' W 071°32'0 0.0
2018-Feb-16 12:21S 32°56' W 071°32'0 0.0
2018-Feb-16 12:00S 32°56' W 071°32'0 0.0
2018-Feb-16 11:27S 32°56' W 071°32'0 0.0
2018-Feb-16 10:06S 32°56' W 071°32'0 0.0
2018-Feb-16 09:42S 32°56' W 071°32'0 0.0
2018-Feb-16 09:21S 32°56' W 071°32'0 0.0
2018-Feb-16 09:00S 32°56' W 071°32'0 0.0
2018-Feb-16 08:24S 32°56' W 071°32'0 0.0
2018-Feb-16 07:51S 32°56' W 071°32'0 0.0
2018-Feb-16 07:21S 32°56' W 071°32'0 0.0
2018-Feb-16 06:57S 32°56' W 071°32'0 0.0
2018-Feb-16 06:18S 32°56' W 071°32'0 0.0
2018-Feb-16 06:00S 32°56' W 071°32'0 0.0
2018-Feb-16 05:30S 32°56' W 071°32'0 0.0
2018-Feb-16 04:54S 32°56' W 071°32'0 0.0
2018-Feb-16 04:30S 32°56' W 071°32'0 0.0
2018-Feb-16 03:57S 32°56' W 071°32'0 0.0
2018-Feb-16 03:27S 32°56' W 071°32'0 0.0
2018-Feb-16 02:57S 32°56' W 071°32'0 0.0
2018-Feb-16 01:48S 32°56' W 071°32'0 0.0
2018-Feb-16 01:24S 32°56' W 071°32'0 0.0
2018-Feb-16 00:57S 32°56' W 071°32'0 0.0
2018-Feb-16 00:21S 32°56' W 071°32'0 0.0
2018-Feb-15 23:48S 32°56' W 071°32'0 0.0
2018-Feb-15 23:15S 32°56' W 071°32'0 0.0
2018-Feb-15 21:30S 32°56' W 071°32'0 0.0
2018-Feb-15 21:00S 32°56' W 071°32'0 0.0
2018-Feb-15 19:36S 32°56' W 071°32'0 0.0
2018-Feb-15 14:42S 32°56' W 071°32'0 0.0
2018-Feb-15 13:57S 32°56' W 071°32'0 0.0
2018-Feb-15 13:24S 32°56' W 071°32'0 0.0
2018-Feb-15 13:00S 32°56' W 071°32'0 0.0
2018-Feb-15 12:06S 32°56' W 071°32'0 0.0
2018-Feb-15 11:57S 32°56' W 071°32'0 0.0
2018-Feb-15 11:30S 32°56' W 071°32'0 0.0
2018-Feb-15 10:12S 32°56' W 071°32'0 0.0
2018-Feb-15 09:57S 32°56' W 071°32'0 0.0
2018-Feb-15 09:30S 32°56' W 071°32'0 0.0
2018-Feb-15 08:57S 32°56' W 071°32'0 0.0
2018-Feb-15 08:30S 32°56' W 071°32'0 0.0
2018-Feb-15 07:57S 32°56' W 071°32'0 0.0
2018-Feb-15 07:30S 32°56' W 071°32'0 0.0
2018-Feb-15 07:00S 32°56' W 071°32'0 0.0
2018-Feb-15 06:24S 32°56' W 071°32'0 0.0
2018-Feb-15 06:00S 32°56' W 071°32'0 0.0
2018-Feb-15 05:30S 32°56' W 071°32'0 0.0
2018-Feb-15 05:00S 32°56' W 071°32'0 0.0
2018-Feb-15 04:27S 32°56' W 071°32'0 0.0
2018-Feb-15 04:00S 32°56' W 071°32'0 0.0
2018-Feb-15 03:30S 32°56' W 071°32'0 0.0
2018-Feb-15 03:00S 32°56' W 071°32'0 0.0
2018-Feb-15 02:27S 32°56' W 071°32'0 0.0
2018-Feb-15 02:00S 32°56' W 071°32'0 0.0
2018-Feb-15 01:30S 32°56' W 071°32'0 0.0
2018-Feb-15 00:57S 32°56' W 071°32'0 0.0
2018-Feb-15 00:24S 32°56' W 071°32'0 0.0
2018-Feb-15 00:00S 32°56' W 071°32'0 0.0
2018-Feb-14 23:27S 32°56' W 071°32'0 0.0
2018-Feb-14 22:57S 32°56' W 071°32'0 0.0
2018-Feb-14 21:33S 32°56' W 071°32'0 0.0
2018-Feb-14 21:22S 32°56' W 071°32'0 0.0
2018-Feb-14 20:51S 32°56' W 071°32'0 0.0
2018-Feb-14 20:30S 32°56' W 071°32'0 0.3
2018-Feb-14 19:58S 32°56' W 071°32'4 7.8
2018-Feb-14 19:30S 32°52' W 071°34'4 1.7
2018-Feb-14 17:15S 32°52' W 071°38'1 5.7
2018-Feb-14 17:00S 32°53' W 071°37'2 4.3
2018-Feb-14 16:29S 32°55' W 071°36'2 3.6
2018-Feb-14 16:00S 32°56' W 071°34'1 2.3
2018-Feb-14 15:30S 32°55' W 071°34'2 3.3
2018-Feb-14 15:00S 32°55' W 071°32'0 0.6
2018-Feb-14 14:30S 32°56' W 071°32'0 0.0
2018-Feb-14 14:00S 32°56' W 071°32'0 0.0
2018-Feb-14 13:30S 32°56' W 071°32'0 0.0
2018-Feb-14 13:00S 32°56' W 071°32'0 0.0
2018-Feb-14 12:25S 32°56' W 071°32'0 0.0
2018-Feb-14 11:57S 32°56' W 071°32'0 0.0
2018-Feb-14 11:30S 32°56' W 071°32'0 0.0
2018-Feb-14 11:00S 32°56' W 071°32'0 0.0
2018-Feb-14 10:28S 32°56' W 071°32'0 0.0
2018-Feb-14 09:54S 32°56' W 071°32'0 0.0
2018-Feb-14 09:30S 32°56' W 071°32'0 0.0
2018-Feb-14 09:00S 32°56' W 071°32'0 0.0
2018-Feb-14 08:30S 32°56' W 071°32'0 0.0
2018-Feb-14 07:57S 32°56' W 071°32'0 0.0
2018-Feb-14 07:27S 32°56' W 071°32'0 0.0
2018-Feb-14 07:00S 32°56' W 071°32'0 0.0
2018-Feb-14 06:30S 32°56' W 071°32'0 0.0
2018-Feb-14 06:00S 32°56' W 071°32'0 0.0
2018-Feb-14 05:30S 32°56' W 071°32'0 0.0
2018-Feb-14 05:00S 32°56' W 071°32'0 0.0
2018-Feb-14 04:30S 32°56' W 071°32'0 0.0
2018-Feb-14 04:00S 32°56' W 071°32'0 0.0
2018-Feb-14 03:30S 32°56' W 071°32'0 0.0
2018-Feb-14 02:57S 32°56' W 071°32'0 0.0
2018-Feb-14 02:30S 32°56' W 071°32'0 0.0
2018-Feb-14 02:00S 32°56' W 071°32'0 0.0
2018-Feb-14 01:30S 32°56' W 071°32'0 0.0
2018-Feb-14 01:00S 32°56' W 071°32'0 0.0
2018-Feb-14 00:30S 32°56' W 071°32'0 0.0
2018-Feb-14 00:00S 32°56' W 071°32'0 0.0
2018-Feb-13 23:30S 32°56' W 071°32'0 0.0
2018-Feb-13 22:54S 32°56' W 071°32'0 0.0
2018-Feb-13 22:27S 32°56' W 071°32'0 0.0
2018-Feb-13 21:57S 32°56' W 071°32'0 0.6
2018-Feb-13 21:30S 32°55' W 071°33'3 6.4
2018-Feb-13 21:00S 32°53' W 071°35'1 1.5
2018-Feb-13 20:30S 32°53' W 071°34'1 2.2
2018-Feb-13 20:00S 32°54' W 071°33'2 3.6
2018-Feb-13 19:30S 32°56' W 071°32'0 0.1
2018-Feb-13 18:58S 32°56' W 071°32'0 0.0
2018-Feb-13 18:22S 32°56' W 071°32'0 0.0
2018-Feb-13 17:58S 32°56' W 071°32'0 0.0
2018-Feb-13 17:28S 32°56' W 071°32'0 0.2
2018-Feb-13 16:59S 32°56' W 071°32'2 5.3
2018-Feb-13 16:30S 32°53' W 071°34'2 4.2
2018-Feb-13 15:58S 32°55' W 071°32'0 0.7
2018-Feb-13 15:30S 32°56' W 071°32'0 0.0
2018-Feb-13 15:00S 32°56' W 071°32'0 0.0
2018-Feb-13 14:30S 32°56' W 071°32'0 0.0
2018-Feb-13 14:00S 32°56' W 071°32'0 0.0
2018-Feb-13 13:30S 32°56' W 071°32'0 0.0
2018-Feb-13 13:00S 32°56' W 071°32'0 0.0
2018-Feb-13 12:24S 32°56' W 071°32'0 0.0
2018-Feb-13 12:00S 32°56' W 071°32'0 0.0
2018-Feb-13 11:27S 32°56' W 071°32'0 0.0
2018-Feb-13 11:00S 32°56' W 071°32'0 0.0
2018-Feb-13 10:24S 32°56' W 071°32'0 0.0
2018-Feb-13 10:00S 32°56' W 071°32'0 0.0
2018-Feb-13 09:30S 32°56' W 071°32'0 0.0
2018-Feb-13 09:00S 32°56' W 071°32'0 0.0
2018-Feb-13 08:30S 32°56' W 071°32'0 0.0
2018-Feb-13 08:00S 32°56' W 071°32'0 0.0
2018-Feb-13 07:30S 32°56' W 071°32'0 0.0
2018-Feb-13 07:00S 32°56' W 071°32'0 0.0
2018-Feb-13 06:27S 32°56' W 071°32'0 0.0
2018-Feb-13 06:00S 32°56' W 071°32'0 0.0
2018-Feb-13 05:30S 32°56' W 071°32'0 0.0
2018-Feb-13 05:00S 32°56' W 071°32'0 0.0
2018-Feb-13 04:24S 32°56' W 071°32'0 0.0
2018-Feb-13 04:00S 32°56' W 071°32'0 0.0
2018-Feb-13 03:30S 32°56' W 071°32'0 0.0
2018-Feb-13 03:00S 32°56' W 071°32'0 0.0
2018-Feb-13 02:30S 32°56' W 071°32'0 0.0
2018-Feb-13 02:00S 32°56' W 071°32'0 0.0
2018-Feb-13 01:30S 32°56' W 071°32'0 0.0
2018-Feb-13 01:00S 32°56' W 071°32'0 0.0
2018-Feb-13 00:30S 32°56' W 071°32'0 0.0
2018-Feb-13 00:00S 32°56' W 071°32'0 0.0
2018-Feb-12 23:30S 32°56' W 071°32'0 0.0
2018-Feb-12 23:00S 32°56' W 071°32'0 0.0
2018-Feb-12 22:30S 32°56' W 071°32'0 0.0
2018-Feb-12 21:51S 32°56' W 071°32'0 0.0
2018-Feb-12 21:30S 32°56' W 071°32'0 0.0
2018-Feb-12 21:00S 32°56' W 071°32'0 0.0
2018-Feb-12 20:27S 32°56' W 071°32'0 0.0
2018-Feb-12 19:51S 32°56' W 071°32'0 0.0
2018-Feb-12 19:27S 32°56' W 071°32'0 0.0
2018-Feb-12 19:00S 32°56' W 071°32'0 0.0
2018-Feb-12 18:27S 32°56' W 071°32'0 0.0
2018-Feb-12 17:57S 32°56' W 071°32'0 0.0
2018-Feb-12 17:24S 32°56' W 071°32'0 0.0
2018-Feb-12 16:57S 32°56' W 071°32'0 0.0
2018-Feb-12 16:30S 32°56' W 071°32'0 0.0
2018-Feb-12 16:00S 32°56' W 071°32'0 0.0
2018-Feb-12 15:09S 32°56' W 071°32'0 0.0
2018-Feb-12 15:00S 32°56' W 071°32'0 0.0
2018-Feb-12 14:27S 32°56' W 071°32'0 0.0
2018-Feb-12 13:54S 32°56' W 071°32'0 0.0
2018-Feb-12 13:18S 32°56' W 071°32'0 0.0
2018-Feb-12 13:00S 32°56' W 071°32'0 0.0
2018-Feb-12 12:30S 32°56' W 071°32'0 0.0
2018-Feb-12 11:57S 32°56' W 071°32'0 0.0
2018-Feb-12 11:30S 32°56' W 071°32'0 0.0
2018-Feb-12 11:00S 32°56' W 071°32'0 0.0
2018-Feb-12 10:30S 32°56' W 071°32'0 0.0
2018-Feb-12 09:57S 32°56' W 071°32'0 0.0
2018-Feb-12 09:30S 32°56' W 071°32'0 0.0
2018-Feb-12 08:57S 32°56' W 071°32'0 0.0
2018-Feb-12 07:51S 32°56' W 071°32'0 0.0
2018-Feb-12 07:30S 32°56' W 071°32'0 0.0
2018-Feb-12 07:00S 32°56' W 071°32'0 0.0
2018-Feb-12 06:30S 32°56' W 071°32'0 0.0
2018-Feb-12 06:00S 32°56' W 071°32'0 0.0
2018-Feb-12 05:30S 32°56' W 071°32'0 0.0
2018-Feb-12 04:57S 32°56' W 071°32'0 0.0
2018-Feb-12 04:30S 32°56' W 071°32'0 0.0
2018-Feb-12 04:00S 32°56' W 071°32'0 0.0
2018-Feb-12 03:30S 32°56' W 071°32'0 0.0
2018-Feb-12 03:00S 32°56' W 071°32'0 0.0
2018-Feb-12 02:30S 32°56' W 071°32'0 0.0
2018-Feb-12 02:00S 32°56' W 071°32'0 0.0
2018-Feb-12 01:30S 32°56' W 071°32'0 0.0
2018-Feb-12 01:00S 32°56' W 071°32'0 0.0
2018-Feb-12 00:30S 32°56' W 071°32'0 0.0
2018-Feb-12 00:00S 32°56' W 071°32'0 0.0
2018-Feb-11 23:30S 32°56' W 071°32'0 0.0
2018-Feb-11 23:00S 32°56' W 071°32'0 0.0
2018-Feb-11 22:30S 32°56' W 071°32'0 0.0
2018-Feb-11 22:00S 32°56' W 071°32'0 0.0
2018-Feb-11 21:30S 32°56' W 071°32'0 0.0
2018-Feb-11 21:00S 32°56' W 071°32'0 0.0
2018-Feb-11 20:30S 32°56' W 071°32'0 0.0
2018-Feb-11 20:00S 32°56' W 071°32'0 0.0
2018-Feb-11 19:30S 32°56' W 071°32'0 0.0
2018-Feb-11 19:00S 32°56' W 071°32'0 0.0
2018-Feb-11 18:30S 32°56' W 071°32'0 0.0
2018-Feb-11 18:00S 32°56' W 071°32'0 0.0
2018-Feb-11 17:30S 32°56' W 071°32'0 0.0
2018-Feb-11 17:00S 32°56' W 071°32'0 0.0
2018-Feb-11 16:30S 32°56' W 071°32'0 0.0
2018-Feb-11 16:00S 32°56' W 071°32'1 2.6
2018-Feb-11 15:30S 32°55' W 071°34'1 2.6
2018-Feb-11 14:59S 32°56' W 071°32'0 0.1
2018-Feb-11 14:29S 32°56' W 071°32'0 0.0
2018-Feb-11 13:59S 32°56' W 071°32'0 0.0
2018-Feb-11 13:29S 32°56' W 071°32'0 0.0
2018-Feb-11 12:59S 32°56' W 071°32'0 0.0
2018-Feb-11 12:29S 32°56' W 071°32'0 0.0
2018-Feb-11 11:59S 32°56' W 071°32'0 0.0
2018-Feb-11 11:29S 32°56' W 071°32'0 0.0
2018-Feb-11 10:59S 32°56' W 071°32'0 0.0
2018-Feb-11 10:29S 32°56' W 071°32'0 0.0
2018-Feb-11 09:59S 32°56' W 071°32'0 0.0
2018-Feb-11 09:29S 32°56' W 071°32'0 0.0
2018-Feb-11 08:59S 32°56' W 071°32'0 0.0
2018-Feb-11 08:29S 32°56' W 071°32'0 0.0
2018-Feb-11 07:59S 32°56' W 071°32'0 0.0
2018-Feb-11 07:29S 32°56' W 071°32'0 0.0
2018-Feb-11 06:59S 32°56' W 071°32'0 0.0
2018-Feb-11 06:29S 32°56' W 071°32'0 0.0
2018-Feb-11 05:59S 32°56' W 071°32'0 0.0
2018-Feb-11 05:29S 32°56' W 071°32'0 0.0
2018-Feb-11 04:59S 32°56' W 071°32'0 0.0
2018-Feb-11 04:29S 32°56' W 071°32'0 0.0
2018-Feb-11 03:59S 32°56' W 071°32'0 0.0
2018-Feb-11 03:29S 32°56' W 071°32'0 0.0
2018-Feb-11 02:59S 32°56' W 071°32'0 0.0
2018-Feb-11 02:26S 32°56' W 071°32'0 0.0
2018-Feb-11 01:59S 32°56' W 071°32'0 0.0
2018-Feb-11 01:29S 32°56' W 071°32'0 0.0
2018-Feb-11 00:59S 32°56' W 071°32'0 0.0
2018-Feb-11 00:29S 32°56' W 071°32'0 0.0
2018-Feb-10 23:59S 32°56' W 071°32'0 0.0
2018-Feb-10 23:29S 32°56' W 071°32'0 0.0
2018-Feb-10 22:56S 32°56' W 071°32'0 0.0
2018-Feb-10 22:29S 32°56' W 071°32'0 0.0
2018-Feb-10 21:59S 32°56' W 071°32'0 0.0
2018-Feb-10 21:29S 32°56' W 071°32'0 0.0
2018-Feb-10 20:59S 32°56' W 071°32'0 0.0
2018-Feb-10 20:29S 32°56' W 071°32'0 0.0
2018-Feb-10 19:59S 32°56' W 071°32'0 0.0
2018-Feb-10 19:29S 32°56' W 071°32'0 0.0
2018-Feb-10 18:56S 32°56' W 071°32'0 0.0
2018-Feb-10 18:29S 32°56' W 071°32'0 0.0
2018-Feb-10 17:59S 32°56' W 071°32'0 0.0
2018-Feb-10 17:29S 32°56' W 071°32'0 0.0
2018-Feb-10 16:59S 32°56' W 071°32'0 0.0
2018-Feb-10 16:29S 32°56' W 071°32'0 0.0
2018-Feb-10 15:59S 32°56' W 071°32'0 0.0
2018-Feb-10 15:29S 32°56' W 071°32'0 0.0
2018-Feb-10 14:59S 32°56' W 071°32'0 0.0
2018-Feb-10 14:29S 32°56' W 071°32'0 0.0
2018-Feb-10 13:59S 32°56' W 071°32'0 0.0
2018-Feb-10 13:29S 32°56' W 071°32'0 0.2
2018-Feb-10 12:58S 32°56' W 071°33'0 0.0
2018-Feb-10 12:28S 32°56' W 071°33'0 0.2
2018-Feb-10 11:58S 32°56' W 071°32'0 0.0
2018-Feb-10 11:28S 32°56' W 071°32'0 0.0
2018-Feb-10 10:58S 32°56' W 071°32'0 0.0
2018-Feb-10 10:28S 32°56' W 071°32'0 0.0
2018-Feb-10 09:58S 32°56' W 071°32'0 0.0
2018-Feb-10 09:28S 32°56' W 071°32'0 0.0
2018-Feb-10 08:58S 32°56' W 071°32'0 0.0
2018-Feb-10 08:28S 32°56' W 071°32'0 0.0
2018-Feb-10 07:58S 32°56' W 071°32'0 0.0
2018-Feb-10 07:28S 32°56' W 071°32'0 0.0
2018-Feb-10 06:58S 32°56' W 071°32'0 0.0
2018-Feb-10 06:28S 32°56' W 071°32'0 0.0
2018-Feb-10 05:58S 32°56' W 071°32'0 0.0
2018-Feb-10 05:28S 32°56' W 071°32'0 0.0
2018-Feb-10 04:58S 32°56' W 071°32'0 0.0
2018-Feb-10 04:28S 32°56' W 071°32'0 0.0
2018-Feb-10 03:58S 32°56' W 071°32'0 0.0
2018-Feb-10 03:28S 32°56' W 071°32'0 0.0
2018-Feb-10 02:58S 32°56' W 071°32'0 0.0
2018-Feb-10 02:28S 32°56' W 071°32'0 0.0
2018-Feb-10 01:55S 32°56' W 071°32'0 0.0
2018-Feb-10 01:28S 32°56' W 071°32'0 0.0
2018-Feb-10 00:58S 32°56' W 071°32'0 0.0
2018-Feb-10 00:25S 32°56' W 071°32'0 0.0
2018-Feb-09 23:55S 32°56' W 071°32'0 0.0
2018-Feb-09 23:28S 32°56' W 071°32'0 0.0
2018-Feb-09 22:58S 32°56' W 071°32'0 0.0
2018-Feb-09 22:43S 32°56' W 071°32'  

Dump ship's entire track history